Port-Cartier, Canada
Current Conditions -  °F | °C
As of 3:00 PM on Saturday 25 Oct 2014 (Local Time) from CYZV Reporting Station
Overcast Overcast  
Wind Chill: 36°   Ceiling: 3100
Heat Index: 43°   Visibility: 30mi
Dew Point: 32°   Wind: 14mph
Humidity: 66%   Direction: 130°SE
Pressure: 29.66"   Gusts: NA
Location:  50.03°N, 66.89°W
Report Text: CYZV 251900Z 13012KT 30SM FEW025 BKN031 OVC240 06/00 A2966 RMK CU1SC7CI1 CU TR SLP045
Loading
Personal Weather Stations






























Interactive Weather Map
Tropical Storm Tracking
New forecast layout! Learn more

10-Day Weather Forecast

Advertisements
Track Severe Weather on mobile